createdAt,value
2022-12-05T00:01:21.898Z,41.42
2022-12-05T00:03:50.164Z,41.64
2022-12-05T00:06:17.942Z,41.45
2022-12-05T00:08:45.012Z,41.65
2022-12-05T00:11:17.119Z,41.83
2022-12-05T00:13:44.620Z,41.69
2022-12-05T00:16:13.973Z,41.49
2022-12-05T00:18:41.051Z,41.58
2022-12-05T00:21:11.852Z,41.69
2022-12-05T00:23:38.208Z,41.75
2022-12-05T00:26:05.603Z,41.45
2022-12-05T00:28:33.190Z,41.47
2022-12-05T00:31:04.369Z,41.50
2022-12-05T00:33:30.862Z,41.77
2022-12-05T00:36:03.101Z,41.74
2022-12-05T00:38:29.548Z,41.82
2022-12-05T00:40:56.043Z,41.91
2022-12-05T00:43:22.612Z,41.55
2022-12-05T00:45:49.133Z,41.46
2022-12-05T00:48:15.717Z,41.80
2022-12-05T00:50:42.383Z,41.36
2022-12-05T00:53:08.869Z,41.40
2022-12-05T00:55:37.544Z,41.36
2022-12-05T00:58:04.219Z,41.81
2022-12-05T01:00:30.689Z,41.72
2022-12-05T01:02:57.172Z,41.62
2022-12-05T01:05:23.765Z,41.62
2022-12-05T01:07:50.384Z,41.90
2022-12-05T01:10:17.124Z,41.67
2022-12-05T01:12:43.595Z,41.78
2022-12-05T01:15:10.513Z,41.69
2022-12-05T01:17:37.111Z,41.56
2022-12-05T01:20:04.000Z,41.43
2022-12-05T01:22:30.489Z,41.97
2022-12-05T01:24:58.140Z,41.73
2022-12-05T01:27:24.749Z,41.88
2022-12-05T01:29:51.362Z,41.76
2022-12-05T01:32:18.363Z,41.89
2022-12-05T01:34:45.047Z,41.63
2022-12-05T01:37:11.600Z,41.83
2022-12-05T01:39:38.191Z,41.55
2022-12-05T01:42:05.812Z,41.91
2022-12-05T01:44:32.310Z,41.86
2022-12-05T01:46:58.880Z,41.95
2022-12-05T01:49:35.544Z,41.75
2022-12-05T01:52:07.753Z,42.00
2022-12-05T01:54:36.754Z,41.75
2022-12-05T01:57:08.180Z,41.70
2022-12-05T01:59:42.002Z,41.73
2022-12-05T02:02:09.281Z,41.83
2022-12-05T02:04:42.033Z,41.78
2022-12-05T02:07:08.542Z,41.93
2022-12-05T02:09:36.507Z,41.89
2022-12-05T02:12:03.598Z,41.65
2022-12-05T02:15:11.443Z,41.69
2022-12-05T02:18:02.130Z,41.99
2022-12-05T02:20:34.483Z,41.84
2022-12-05T02:23:19.753Z,41.76
2022-12-05T02:25:55.498Z,41.63
2022-12-05T02:28:31.116Z,41.92
2022-12-05T02:31:09.848Z,41.82
2022-12-05T02:33:45.681Z,41.65
2022-12-05T02:36:22.719Z,42.02
2022-12-05T02:39:14.149Z,41.59
2022-12-05T02:41:50.179Z,41.86
2022-12-05T02:44:21.410Z,42.05
2022-12-05T02:46:50.151Z,41.62
2022-12-05T02:49:23.710Z,41.85
2022-12-05T02:51:55.197Z,41.72
2022-12-05T02:54:26.024Z,42.02
2022-12-05T02:56:53.018Z,41.71
2022-12-05T02:59:23.290Z,42.07
2022-12-05T03:01:50.622Z,41.83
2022-12-05T03:04:20.178Z,41.96
2022-12-05T03:06:57.952Z,41.86
2022-12-05T03:09:35.631Z,42.09
2022-12-05T03:12:07.518Z,41.88
2022-12-05T03:14:40.236Z,41.89
2022-12-05T03:17:12.675Z,41.73
2022-12-05T03:20:02.583Z,42.06
2022-12-05T03:22:29.021Z,41.86
2022-12-05T03:24:55.714Z,41.91
2022-12-05T03:27:32.372Z,41.70
2022-12-05T03:30:10.146Z,41.96
2022-12-05T03:32:45.474Z,41.77
2022-12-05T03:35:21.437Z,41.72
2022-12-05T03:37:56.557Z,41.82
2022-12-05T03:40:39.651Z,41.65
2022-12-05T03:43:18.484Z,41.80
2022-12-05T03:45:55.760Z,42.19
2022-12-05T03:48:38.115Z,41.83
2022-12-05T03:51:08.152Z,41.96
2022-12-05T03:53:44.868Z,41.91
2022-12-05T03:56:23.714Z,41.98
2022-12-05T03:59:13.301Z,41.92
2022-12-05T04:01:43.318Z,41.86
2022-12-05T04:04:21.571Z,41.99
2022-12-05T04:06:53.406Z,41.88
2022-12-05T04:09:27.469Z,41.97
2022-12-05T04:12:01.559Z,41.87
2022-12-05T04:14:37.444Z,42.02
2022-12-05T04:17:13.616Z,41.90
2022-12-05T04:20:04.662Z,41.82
2022-12-05T04:22:31.950Z,41.89
2022-12-05T04:25:19.874Z,41.92
2022-12-05T04:28:05.006Z,41.95
2022-12-05T04:30:37.740Z,41.87
2022-12-05T04:33:22.121Z,42.29
2022-12-05T04:36:16.904Z,42.17
2022-12-05T04:39:03.962Z,42.23
2022-12-05T04:41:37.128Z,42.05
2022-12-05T04:44:07.724Z,41.87
2022-12-05T04:46:36.050Z,41.96
2022-12-05T04:49:06.901Z,41.87
2022-12-05T04:51:34.885Z,42.19
2022-12-05T04:54:21.368Z,41.80
2022-12-05T04:56:52.964Z,42.23
2022-12-05T04:59:22.189Z,42.18
2022-12-05T05:01:53.934Z,42.02
2022-12-05T05:04:34.768Z,41.96
2022-12-05T05:07:09.145Z,41.89
2022-12-05T05:09:36.271Z,42.16
2022-12-05T05:12:03.305Z,42.21
2022-12-05T05:14:30.233Z,41.93
2022-12-05T05:16:56.795Z,42.04
2022-12-05T05:19:23.527Z,42.31
2022-12-05T05:21:51.537Z,42.07
2022-12-05T05:24:18.705Z,42.18
2022-12-05T05:26:46.197Z,41.93
2022-12-05T05:29:13.505Z,42.31
2022-12-05T05:31:41.657Z,41.91
2022-12-05T05:34:09.862Z,42.27
2022-12-05T05:36:37.393Z,42.35
2022-12-05T05:39:04.847Z,42.25
2022-12-05T05:41:34.269Z,42.36
2022-12-05T05:44:01.646Z,42.00
2022-12-05T05:46:30.630Z,42.21
2022-12-05T05:48:57.465Z,42.14
2022-12-05T05:51:27.918Z,41.97
2022-12-05T05:53:54.649Z,42.10
2022-12-05T05:56:22.405Z,42.38
2022-12-05T05:58:54.889Z,41.96
2022-12-05T06:01:21.520Z,42.25
2022-12-05T06:03:50.575Z,42.29
2022-12-05T06:06:18.665Z,42.25
2022-12-05T06:08:45.909Z,41.99
2022-12-05T06:11:17.823Z,42.55
2022-12-05T06:13:50.111Z,42.15
2022-12-05T06:16:18.169Z,42.11
2022-12-05T06:18:44.815Z,42.28
2022-12-05T06:21:16.157Z,42.19
2022-12-05T06:23:43.079Z,42.02
2022-12-05T06:26:19.789Z,42.21
2022-12-05T06:28:46.668Z,42.26
2022-12-05T06:31:16.166Z,42.03
2022-12-05T06:33:42.994Z,42.43
2022-12-05T06:36:15.622Z,42.34
2022-12-05T06:38:42.707Z,42.06
2022-12-05T06:41:15.210Z,42.02
2022-12-05T06:43:42.314Z,42.39
2022-12-05T06:46:10.605Z,42.10
2022-12-05T06:48:37.315Z,42.47
2022-12-05T06:51:04.889Z,42.27
2022-12-05T06:53:31.309Z,42.30
2022-12-05T06:55:59.865Z,42.08
2022-12-05T06:58:26.483Z,42.31
2022-12-05T07:01:12.303Z,42.28
2022-12-05T07:03:39.146Z,42.36
2022-12-05T07:06:06.764Z,42.42
2022-12-05T07:08:33.727Z,42.26
2022-12-05T07:11:00.475Z,42.38
2022-12-05T07:13:27.023Z,42.54
2022-12-05T07:15:53.524Z,42.57
2022-12-05T07:18:20.036Z,42.31
2022-12-05T07:21:12.853Z,42.37
2022-12-05T07:23:40.944Z,42.46
2022-12-05T07:26:09.077Z,42.28
2022-12-05T07:28:36.402Z,42.24
2022-12-05T07:31:06.289Z,42.34
2022-12-05T07:33:33.132Z,42.44
2022-12-05T07:36:06.180Z,42.36
2022-12-05T07:38:33.090Z,42.32
2022-12-05T07:40:59.578Z,42.15
2022-12-05T07:43:26.197Z,42.50
2022-12-05T07:45:52.736Z,42.33
2022-12-05T07:48:19.323Z,42.47
2022-12-05T07:50:46.036Z,42.38
2022-12-05T07:53:12.815Z,42.25
2022-12-05T07:55:39.405Z,42.33
2022-12-05T07:58:06.219Z,42.50
2022-12-05T08:00:32.836Z,42.28
2022-12-05T08:02:59.483Z,42.41
2022-12-05T08:05:26.024Z,42.30
2022-12-05T08:07:52.555Z,42.42
2022-12-05T08:10:19.143Z,42.58
2022-12-05T08:12:45.599Z,42.43
2022-12-05T08:15:12.597Z,42.40
2022-12-05T08:17:39.125Z,42.63
2022-12-05T08:20:06.321Z,42.62
2022-12-05T08:22:32.775Z,42.46
2022-12-05T08:24:59.259Z,42.50
2022-12-05T08:27:25.838Z,42.30
2022-12-05T08:29:54.476Z,42.55
2022-12-05T08:32:21.163Z,42.68
2022-12-05T08:34:47.594Z,42.41
2022-12-05T08:37:14.062Z,42.46
2022-12-05T08:39:40.552Z,42.53
2022-12-05T08:42:07.147Z,42.52
2022-12-05T08:44:33.712Z,42.58
2022-12-05T08:47:00.234Z,42.64
2022-12-05T08:49:26.732Z,42.69
2022-12-05T08:51:53.167Z,42.58
2022-12-05T08:54:19.742Z,42.57
2022-12-05T08:56:46.378Z,42.37
2022-12-05T08:59:12.904Z,42.67
2022-12-05T09:01:40.631Z,42.42
2022-12-05T09:04:07.714Z,42.68
2022-12-05T09:06:35.619Z,42.44
2022-12-05T09:09:05.279Z,42.73
2022-12-05T09:11:35.421Z,42.49
2022-12-05T09:14:02.446Z,42.65
2022-12-05T09:16:37.099Z,42.78
2022-12-05T09:19:05.328Z,42.66
2022-12-05T09:21:32.488Z,42.75
2022-12-05T09:24:00.491Z,42.47
2022-12-05T09:26:28.741Z,42.47
2022-12-05T09:28:55.197Z,42.35
2022-12-05T09:31:25.230Z,42.73
2022-12-05T09:33:52.617Z,42.40
2022-12-05T09:36:28.243Z,42.72
2022-12-05T09:38:56.319Z,42.48
2022-12-05T09:41:46.028Z,42.52
2022-12-05T09:44:27.480Z,42.73
2022-12-05T09:47:07.401Z,42.72
2022-12-05T09:49:36.470Z,42.63
2022-12-05T09:52:04.775Z,42.42
2022-12-05T09:54:32.596Z,42.54
2022-12-05T09:57:00.098Z,42.79
2022-12-05T09:59:26.578Z,42.48
2022-12-05T10:02:25.850Z,42.74
2022-12-05T10:05:01.373Z,42.43
2022-12-05T10:08:04.476Z,42.75
2022-12-05T10:10:57.276Z,42.85
2022-12-05T10:13:29.606Z,42.68
2022-12-05T10:16:02.930Z,42.85
2022-12-05T10:18:58.228Z,42.44
2022-12-05T10:21:36.781Z,42.35
2022-12-05T10:24:10.137Z,42.54
2022-12-05T10:26:44.271Z,42.67
2022-12-05T10:29:27.178Z,42.70
2022-12-05T10:32:02.626Z,42.60
2022-12-05T10:34:37.722Z,42.81
2022-12-05T10:37:19.159Z,42.60
2022-12-05T10:39:47.492Z,42.83
2022-12-05T10:42:42.203Z,42.65
2022-12-05T10:45:16.196Z,42.85
2022-12-05T10:47:42.842Z,42.84
2022-12-05T10:50:24.200Z,42.85
2022-12-05T10:52:52.746Z,42.59
2022-12-05T10:55:19.637Z,42.52
2022-12-05T10:57:51.945Z,42.86
2022-12-05T11:00:22.438Z,42.76
2022-12-05T11:02:49.859Z,42.93
2022-12-05T11:05:27.599Z,42.81
2022-12-05T11:07:56.720Z,42.59
2022-12-05T11:10:27.131Z,42.70
2022-12-05T11:12:56.737Z,42.97
2022-12-05T11:15:26.582Z,42.60
2022-12-05T11:17:55.064Z,42.65
2022-12-05T11:20:21.886Z,42.82
2022-12-05T11:22:56.888Z,42.74
2022-12-05T11:25:30.073Z,42.64
2022-12-05T11:28:20.860Z,42.63
2022-12-05T11:30:59.796Z,43.05
2022-12-05T11:33:29.534Z,43.00
2022-12-05T11:36:01.587Z,43.05
2022-12-05T11:38:32.309Z,43.01
2022-12-05T11:40:58.682Z,42.97
2022-12-05T11:44:00.518Z,43.01
2022-12-05T11:46:36.026Z,43.00
2022-12-05T11:49:20.542Z,43.08
2022-12-05T11:52:22.383Z,42.93
2022-12-05T11:55:20.459Z,42.68
2022-12-05T11:58:19.243Z,43.05
2022-12-05T12:01:06.106Z,43.10
2022-12-05T12:04:08.120Z,42.82
2022-12-05T12:06:54.827Z,43.06
2022-12-05T12:09:38.680Z,42.82
2022-12-05T12:12:19.243Z,42.86
2022-12-05T12:15:03.842Z,42.96
2022-12-05T12:17:42.369Z,42.80
2022-12-05T12:20:23.765Z,42.96
2022-12-05T12:23:17.692Z,42.90
2022-12-05T12:26:08.558Z,43.04
2022-12-05T12:28:37.690Z,43.09
2022-12-05T12:31:13.141Z,42.71
2022-12-05T12:33:54.259Z,42.77
2022-12-05T12:36:48.534Z,42.93
2022-12-05T12:39:17.940Z,43.14
2022-12-05T12:41:50.562Z,43.12
2022-12-05T12:44:45.929Z,42.92
2022-12-05T12:47:33.966Z,42.90
2022-12-05T12:50:08.123Z,43.03
2022-12-05T12:53:16.465Z,43.07
2022-12-05T12:56:20.081Z,43.15
2022-12-05T12:59:09.256Z,42.97
2022-12-05T13:01:59.019Z,43.03
2022-12-05T13:04:33.448Z,43.04
2022-12-05T13:07:13.731Z,43.20
2022-12-05T13:09:42.020Z,43.16
2022-12-05T13:12:13.122Z,42.77
2022-12-05T13:14:45.168Z,42.98
2022-12-05T13:17:18.002Z,42.97
2022-12-05T13:19:49.106Z,43.02
2022-12-05T13:22:18.275Z,42.97
2022-12-05T13:24:44.859Z,42.79
2022-12-05T13:27:29.304Z,42.86
2022-12-05T13:30:02.523Z,43.21
2022-12-05T13:32:42.563Z,43.11
2022-12-05T13:36:02.122Z,42.92
2022-12-05T13:38:50.624Z,42.91
2022-12-05T13:41:36.099Z,43.15
2022-12-05T13:44:12.327Z,43.04
2022-12-05T13:46:42.302Z,43.19
2022-12-05T13:49:29.642Z,43.10
2022-12-05T13:52:07.019Z,43.01
2022-12-05T13:54:35.450Z,42.97
2022-12-05T13:57:02.770Z,42.98
2022-12-05T14:00:00.133Z,43.10
2022-12-05T14:02:42.286Z,42.93
2022-12-05T14:05:21.132Z,43.01
2022-12-05T14:07:57.465Z,43.17
2022-12-05T14:10:36.562Z,43.15
2022-12-05T14:13:23.872Z,43.22
2022-12-05T14:15:52.775Z,43.02
2022-12-05T14:18:26.605Z,43.17
2022-12-05T14:21:02.008Z,42.95
2022-12-05T14:23:42.604Z,43.25
2022-12-05T14:26:38.522Z,42.97
2022-12-05T14:29:07.879Z,42.92
2022-12-05T14:31:45.805Z,43.31
2022-12-05T14:34:22.332Z,43.10
2022-12-05T14:37:18.230Z,43.03
2022-12-05T14:39:58.021Z,43.05
2022-12-05T14:42:44.167Z,43.18
2022-12-05T14:45:27.505Z,43.38
2022-12-05T14:47:57.043Z,43.22
2022-12-05T14:50:43.898Z,43.13
2022-12-05T14:53:46.305Z,42.97
2022-12-05T14:56:17.469Z,43.11
2022-12-05T14:59:28.946Z,43.18
2022-12-05T15:01:59.144Z,43.00
2022-12-05T15:04:46.512Z,42.91
2022-12-05T15:07:19.623Z,43.17
2022-12-05T15:10:24.469Z,43.39
2022-12-05T15:13:05.346Z,43.38
2022-12-05T15:15:42.728Z,43.05
2022-12-05T15:18:47.160Z,43.34
2022-12-05T15:21:19.643Z,43.25
2022-12-05T15:23:48.619Z,43.18
2022-12-05T15:29:20.913Z,43.00
2022-12-05T15:31:51.085Z,43.38
2022-12-05T15:34:36.780Z,43.01
2022-12-05T15:37:12.221Z,43.08
2022-12-05T15:40:01.016Z,43.07
2022-12-05T15:42:41.213Z,43.35
2022-12-05T15:45:13.727Z,43.24
2022-12-05T15:47:45.540Z,42.96
2022-12-05T15:50:33.059Z,43.26
2022-12-05T15:53:02.913Z,43.28
2022-12-05T15:55:38.223Z,43.40
2022-12-05T15:58:18.168Z,43.06
2022-12-05T16:00:49.500Z,43.33
2022-12-05T16:03:21.651Z,43.13
2022-12-05T16:06:04.282Z,43.15
2022-12-05T16:08:40.667Z,43.36
2022-12-05T16:11:11.344Z,43.22
2022-12-05T16:13:44.033Z,43.15
2022-12-05T16:16:35.770Z,43.26
2022-12-05T16:19:24.069Z,43.15
2022-12-05T16:22:25.234Z,43.49
2022-12-05T16:25:00.342Z,43.56
2022-12-05T16:27:30.133Z,43.11
2022-12-05T16:30:11.738Z,43.31
2022-12-05T16:32:42.823Z,43.01
2022-12-05T16:35:27.836Z,43.35
2022-12-05T16:38:06.491Z,43.18
2022-12-05T16:40:33.492Z,43.34
2022-12-05T16:43:05.476Z,43.40
2022-12-05T16:45:43.210Z,43.31
2022-12-05T16:48:30.737Z,43.51
2022-12-05T16:51:21.254Z,43.48
2022-12-05T16:53:47.790Z,43.41
2022-12-05T16:56:20.648Z,43.34
2022-12-05T16:58:47.457Z,43.41
2022-12-05T17:01:22.423Z,43.26
2022-12-05T17:03:49.087Z,43.22
2022-12-05T17:06:16.353Z,43.44
2022-12-05T17:08:43.006Z,43.44
2022-12-05T17:11:17.177Z,43.34
2022-12-05T17:13:45.180Z,43.68
2022-12-05T17:16:13.072Z,43.33
2022-12-05T17:18:39.654Z,43.19
2022-12-05T17:21:06.695Z,43.59
2022-12-05T17:23:33.245Z,43.40
2022-12-05T17:25:59.933Z,43.19
2022-12-05T17:28:26.500Z,43.25
2022-12-05T17:30:52.977Z,43.48
2022-12-05T17:33:19.880Z,43.34
2022-12-05T17:35:46.941Z,43.50
2022-12-05T17:38:14.243Z,43.55
2022-12-05T17:40:40.883Z,43.24
2022-12-05T17:43:09.907Z,43.40
2022-12-05T17:45:36.397Z,43.54
2022-12-05T17:48:02.967Z,43.34
2022-12-05T17:50:29.973Z,43.53
2022-12-05T17:53:02.817Z,43.25
2022-12-05T17:55:32.369Z,43.44
2022-12-05T17:57:58.819Z,43.17
2022-12-05T18:00:25.503Z,43.28
2022-12-05T18:02:52.685Z,43.18
2022-12-05T18:05:20.027Z,43.40
2022-12-05T18:07:47.354Z,43.62
2022-12-05T18:10:19.876Z,43.41
2022-12-05T18:12:47.723Z,43.41
2022-12-05T18:15:15.381Z,43.34
2022-12-05T18:17:42.833Z,43.51
2022-12-05T18:20:12.800Z,43.46
2022-12-05T18:22:39.362Z,43.54
2022-12-05T18:25:06.408Z,43.35
2022-12-05T18:27:35.411Z,43.28
2022-12-05T18:30:03.648Z,43.50
2022-12-05T18:32:30.305Z,43.48
2022-12-05T18:34:58.970Z,43.15
2022-12-05T18:37:28.168Z,43.51
2022-12-05T18:39:56.422Z,43.36
2022-12-05T18:42:23.485Z,43.17
2022-12-05T18:44:50.019Z,43.47
2022-12-05T18:47:16.522Z,43.34
2022-12-05T18:49:43.063Z,43.32
2022-12-05T18:52:10.230Z,43.55
2022-12-05T18:54:36.799Z,43.47
2022-12-05T18:57:03.686Z,43.58
2022-12-05T18:59:30.663Z,43.46
2022-12-05T19:01:59.950Z,43.36
2022-12-05T19:04:28.799Z,43.49
2022-12-05T19:06:58.658Z,43.22
2022-12-05T19:09:28.137Z,43.29
2022-12-05T19:11:59.701Z,43.54
2022-12-05T19:14:29.509Z,43.44
2022-12-05T19:16:59.903Z,43.39
2022-12-05T19:19:27.158Z,43.43
2022-12-05T19:21:53.715Z,43.44
2022-12-05T19:24:20.335Z,43.68
2022-12-05T19:26:48.008Z,43.70
2022-12-05T19:29:15.970Z,43.33
2022-12-05T19:31:43.330Z,43.49
2022-12-05T19:34:10.678Z,43.33
2022-12-05T19:36:40.132Z,43.40
2022-12-05T19:39:20.142Z,43.54
2022-12-05T19:41:47.156Z,43.47
2022-12-05T19:44:14.007Z,43.75
2022-12-05T19:46:41.016Z,43.33
2022-12-05T19:49:12.237Z,43.54
2022-12-05T19:51:39.068Z,43.38
2022-12-05T19:54:07.013Z,43.36
2022-12-05T19:56:35.099Z,43.42
2022-12-05T19:59:01.805Z,43.74
2022-12-05T20:01:31.512Z,43.30
2022-12-05T20:04:01.072Z,43.64
2022-12-05T20:06:34.369Z,43.57
2022-12-05T20:09:01.445Z,43.28
2022-12-05T20:11:31.891Z,43.73
2022-12-05T20:14:00.426Z,43.83
2022-12-05T20:16:28.186Z,43.50
2022-12-05T20:18:58.133Z,43.68
2022-12-05T20:21:26.108Z,43.46
2022-12-05T20:23:53.340Z,43.64
2022-12-05T20:26:23.481Z,43.57
2022-12-05T20:28:51.202Z,43.28
2022-12-05T20:31:20.337Z,43.38
2022-12-05T20:33:48.634Z,43.60
2022-12-05T20:36:18.270Z,43.46
2022-12-05T20:38:45.726Z,43.74
2022-12-05T20:41:18.526Z,43.68
2022-12-05T20:43:47.499Z,43.50
2022-12-05T20:46:17.394Z,43.66
2022-12-05T20:48:44.311Z,43.59
2022-12-05T20:51:15.939Z,43.68
2022-12-05T20:53:44.438Z,43.42
2022-12-05T20:56:32.585Z,43.86
2022-12-05T20:59:02.011Z,43.80
2022-12-05T21:01:30.851Z,43.72
2022-12-05T21:03:58.037Z,43.77
2022-12-05T21:06:25.976Z,43.64
2022-12-05T21:08:53.579Z,43.49
2022-12-05T21:11:20.709Z,43.51
2022-12-05T21:13:47.500Z,43.45
2022-12-05T21:16:17.176Z,43.64
2022-12-05T21:18:44.780Z,43.50
2022-12-05T21:21:18.068Z,43.59
2022-12-05T21:23:46.512Z,43.48
2022-12-05T21:26:16.055Z,43.70
2022-12-05T21:28:44.371Z,43.71
2022-12-05T21:31:16.702Z,43.64
2022-12-05T21:33:47.559Z,43.70
2022-12-05T21:36:14.348Z,43.68
2022-12-05T21:38:40.861Z,43.64
2022-12-05T21:41:07.705Z,43.59
2022-12-05T21:43:35.237Z,43.66
2022-12-05T21:46:01.953Z,43.50
2022-12-05T21:48:28.511Z,43.41
2022-12-05T21:50:55.254Z,43.55
2022-12-05T21:53:22.539Z,43.75
2022-12-05T21:55:59.215Z,43.62
2022-12-05T21:58:25.756Z,43.49
2022-12-05T22:00:52.306Z,43.84
2022-12-05T22:03:18.752Z,43.52
2022-12-05T22:05:45.248Z,43.58
2022-12-05T22:08:11.781Z,43.71
2022-12-05T22:10:38.749Z,43.52
2022-12-05T22:13:05.311Z,43.45
2022-12-05T22:15:31.743Z,43.50
2022-12-05T22:17:58.290Z,43.88
2022-12-05T22:20:24.762Z,43.45
2022-12-05T22:22:51.234Z,43.76
2022-12-05T22:25:17.715Z,43.71
2022-12-05T22:27:44.186Z,43.42
2022-12-05T22:30:11.002Z,43.76
2022-12-05T22:32:37.591Z,43.62
2022-12-05T22:35:04.639Z,43.55
2022-12-05T22:37:31.538Z,43.78
2022-12-05T22:39:58.562Z,43.50
2022-12-05T22:42:27.444Z,43.74
2022-12-05T22:44:53.933Z,43.62
2022-12-05T22:47:20.499Z,43.49
2022-12-05T22:49:47.006Z,43.40
2022-12-05T22:52:13.531Z,43.50
2022-12-05T22:54:40.015Z,43.90
2022-12-05T22:57:06.505Z,43.63
2022-12-05T22:59:32.934Z,43.71
2022-12-05T23:01:59.632Z,43.64
2022-12-05T23:04:26.388Z,43.76
2022-12-05T23:06:53.008Z,43.63
2022-12-05T23:09:20.509Z,43.74
2022-12-05T23:11:49.655Z,43.79
2022-12-05T23:14:16.221Z,43.91
2022-12-05T23:16:42.837Z,43.64
2022-12-05T23:19:09.622Z,43.53
2022-12-05T23:21:39.390Z,43.82
2022-12-05T23:24:09.016Z,43.87
2022-12-05T23:26:39.002Z,43.83
2022-12-05T23:29:05.674Z,43.56
2022-12-05T23:31:32.512Z,43.81
2022-12-05T23:34:03.190Z,43.64
2022-12-05T23:36:32.107Z,43.79
2022-12-05T23:38:58.671Z,43.88
2022-12-05T23:41:26.190Z,43.73
2022-12-05T23:43:53.136Z,43.62
2022-12-05T23:46:22.180Z,43.89
2022-12-05T23:48:49.112Z,43.44
2022-12-05T23:51:27.436Z,43.61
2022-12-05T23:53:56.577Z,43.63
2022-12-05T23:56:25.684Z,43.54
2022-12-05T23:58:53.375Z,43.59
